Main page
METAR-TAF:

METAR-TAF

Airports :

Allama Iqbal International Airport

Lahore, Pakistan

latitude: 31-31N, longitude: 074-24E, elevation: 216 m

Current weather observation

The report was made 13 minutes ago, at 08:25 UTC
Wind 5 kt from the West/Northwest
Temperature 39°C
Humidity 21%
Pressure 1004 hPa
Visibility: 6000 m
Few clouds at a height of 4000 ft
Scattered clouds at a height of 10000 ft

METAR: OPLA 180825Z 30005KT 6000 FEW040 SCT100 39/13 Q1004 NOSIG RMK QFE977 RMK A29.67

Time: 13:38 (08:38 UTC)

Forecast

The report was made 4 hours and 53 minutes ago, at 03:45 UTC
Forecast valid from 18 at 06 UTC to 19 at 12 UTC
Wind 5 kt from the Southeast
Visibility: 4000 m
Scattered clouds at a height of 10000 ft
haze
Probability 30% :
Temporary
from 18 at 08 UTC to 18 at 13 UTC
Wind 20 kt from the West/Southwest with gusts up to 35 kt
Visibility: 2000 m
Low drifting dust

TAF: OPLA 180345Z 1806/1912 14005KT 4000 HZ SCT100 TX42/1910Z TN28/1900Z PROB30 TEMPO 1808/1813 24020G35KT 2000 DRDU

Weather observations and forecasts of more than 4000 airports (METAR and TAF reports).

The available stations are represented by yellow and red dots on the map.

Hover mouse over dot to see the name of the station.

Then click to see weather observations and forecasts.

To change the map : click on the green buttons with a black cross to zoom in, on the green button with a dash to zoom out, or on the green arrows for adjacent maps.


METAR-TAF: